createdAt,value
2019-03-24T00:00:05.510Z,12.00
2019-03-24T00:02:33.131Z,11.90
2019-03-24T00:05:00.704Z,11.90
2019-03-24T00:07:28.667Z,11.90
2019-03-24T00:09:56.767Z,11.90
2019-03-24T00:12:24.816Z,12.00
2019-03-24T00:14:53.955Z,11.90
2019-03-24T00:17:21.655Z,11.90
2019-03-24T00:19:49.791Z,11.90
2019-03-24T00:22:17.953Z,11.80
2019-03-24T00:24:45.957Z,11.90
2019-03-24T00:27:13.643Z,12.00
2019-03-24T00:29:43.316Z,11.90
2019-03-24T00:32:11.571Z,11.90
2019-03-24T00:34:39.640Z,11.90
2019-03-24T00:37:07.419Z,11.80
2019-03-24T00:39:37.431Z,11.80
2019-03-24T00:42:05.384Z,11.70
2019-03-24T00:44:33.039Z,11.70
2019-03-24T00:47:01.453Z,11.40
2019-03-24T00:49:31.164Z,11.30
2019-03-24T00:51:58.879Z,11.40
2019-03-24T00:54:26.528Z,11.20
2019-03-24T00:56:55.096Z,11.20
2019-03-24T00:59:22.731Z,11.30
2019-03-24T01:01:51.079Z,11.20
2019-03-24T01:04:18.732Z,11.20
2019-03-24T01:06:46.977Z,11.30
2019-03-24T01:09:15.667Z,11.40
2019-03-24T01:11:43.684Z,11.60
2019-03-24T01:14:12.364Z,11.60
2019-03-24T01:16:39.923Z,11.60
2019-03-24T01:19:11.076Z,11.60
2019-03-24T01:21:40.055Z,11.50
2019-03-24T01:24:08.541Z,11.60
2019-03-24T01:26:38.224Z,11.50
2019-03-24T01:29:07.715Z,11.50
2019-03-24T01:31:36.670Z,11.50
2019-03-24T01:34:05.136Z,11.40
2019-03-24T01:36:33.260Z,11.40
2019-03-24T01:39:04.329Z,11.50
2019-03-24T01:41:33.904Z,11.60
2019-03-24T01:44:01.350Z,11.70
2019-03-24T01:46:29.505Z,11.70
2019-03-24T01:48:57.153Z,11.70
2019-03-24T01:51:26.668Z,11.60
2019-03-24T01:53:54.228Z,11.60
2019-03-24T01:56:22.148Z,11.70
2019-03-24T01:58:50.675Z,11.60
2019-03-24T02:01:19.169Z,11.60
2019-03-24T02:03:47.035Z,11.70
2019-03-24T02:06:15.420Z,11.70
2019-03-24T02:08:43.518Z,11.70
2019-03-24T02:11:11.201Z,11.70
2019-03-24T02:13:39.837Z,11.70
2019-03-24T02:16:09.524Z,11.70
2019-03-24T02:18:37.250Z,11.60
2019-03-24T02:21:05.035Z,11.70
2019-03-24T02:23:32.411Z,11.70
2019-03-24T02:26:00.260Z,11.60
2019-03-24T02:28:29.457Z,11.60
2019-03-24T02:30:58.942Z,11.70
2019-03-24T02:33:26.316Z,11.70
2019-03-24T02:35:53.825Z,11.60
2019-03-24T02:38:21.771Z,11.60
2019-03-24T02:40:49.324Z,11.60
2019-03-24T02:43:18.528Z,11.50
2019-03-24T02:45:46.179Z,11.60
2019-03-24T02:48:15.240Z,11.50
2019-03-24T02:50:42.887Z,11.50
2019-03-24T02:53:11.528Z,11.50
2019-03-24T02:55:40.505Z,11.50
2019-03-24T02:58:08.699Z,11.50
2019-03-24T03:00:36.412Z,11.40
2019-03-24T03:03:04.011Z,11.30
2019-03-24T03:05:33.088Z,11.30
2019-03-24T03:08:02.213Z,11.30
2019-03-24T03:10:31.700Z,11.30
2019-03-24T03:13:00.099Z,11.30
2019-03-24T03:15:27.475Z,11.30
2019-03-24T03:17:56.223Z,11.40
2019-03-24T03:20:23.755Z,11.40
2019-03-24T03:22:51.832Z,11.30
2019-03-24T03:25:20.320Z,11.30
2019-03-24T03:27:48.939Z,11.30
2019-03-24T03:30:17.003Z,11.30
2019-03-24T03:32:45.556Z,11.30
2019-03-24T03:35:13.976Z,11.30
2019-03-24T03:37:43.025Z,11.40
2019-03-24T03:40:11.125Z,11.30
2019-03-24T03:42:39.805Z,11.30
2019-03-24T03:45:08.421Z,11.30
2019-03-24T03:47:36.089Z,11.30
2019-03-24T03:50:05.779Z,11.30
2019-03-24T03:52:33.756Z,11.30
2019-03-24T03:55:01.763Z,11.20
2019-03-24T03:57:31.084Z,11.30
2019-03-24T03:59:59.626Z,11.30
2019-03-24T04:02:27.254Z,11.40
2019-03-24T04:04:54.804Z,11.30
2019-03-24T04:07:24.252Z,11.40
2019-03-24T04:09:51.884Z,11.30
2019-03-24T04:12:19.489Z,11.20
2019-03-24T04:14:47.250Z,11.20
2019-03-24T04:17:14.803Z,11.30
2019-03-24T04:19:42.599Z,11.20
2019-03-24T04:22:11.269Z,11.20
2019-03-24T04:24:40.313Z,11.20
2019-03-24T04:27:08.768Z,11.30
2019-03-24T04:29:37.005Z,11.20
2019-03-24T04:32:04.934Z,11.20
2019-03-24T04:34:32.638Z,11.30
2019-03-24T04:37:00.229Z,11.30
2019-03-24T04:39:29.292Z,11.30
2019-03-24T04:41:57.391Z,11.20
2019-03-24T04:44:24.807Z,11.20
2019-03-24T04:46:53.747Z,11.20
2019-03-24T04:49:22.895Z,11.10
2019-03-24T04:51:51.693Z,11.10
2019-03-24T04:54:19.111Z,11.10
2019-03-24T04:56:47.039Z,11.10
2019-03-24T04:59:14.880Z,11.10
2019-03-24T05:01:42.803Z,11.10
2019-03-24T05:04:10.430Z,11.10
2019-03-24T05:06:38.451Z,11.00
2019-03-24T05:09:07.096Z,11.00
2019-03-24T05:11:36.049Z,11.00
2019-03-24T05:14:04.108Z,11.00
2019-03-24T05:16:32.372Z,11.00
2019-03-24T05:19:01.264Z,10.90
2019-03-24T05:21:29.392Z,11.00
2019-03-24T05:23:57.340Z,11.00
2019-03-24T05:26:25.383Z,11.10
2019-03-24T05:28:52.897Z,11.10
2019-03-24T05:31:20.723Z,11.10
2019-03-24T05:33:48.335Z,11.00
2019-03-24T05:36:16.261Z,11.00
2019-03-24T05:38:43.927Z,11.00
2019-03-24T05:41:12.015Z,11.00
2019-03-24T05:43:40.347Z,10.90
2019-03-24T05:46:08.168Z,11.00
2019-03-24T05:48:36.483Z,11.00
2019-03-24T05:51:04.815Z,11.00
2019-03-24T05:53:33.067Z,11.00
2019-03-24T05:56:00.919Z,11.10
2019-03-24T05:58:30.311Z,11.00
2019-03-24T06:00:58.567Z,11.00
2019-03-24T06:03:27.536Z,11.00
2019-03-24T06:05:55.440Z,11.10
2019-03-24T06:08:24.069Z,11.10
2019-03-24T06:10:51.542Z,11.10
2019-03-24T06:13:19.359Z,11.20
2019-03-24T06:15:47.404Z,11.20
2019-03-24T06:18:15.644Z,11.20
2019-03-24T06:20:43.745Z,11.30
2019-03-24T06:23:11.366Z,11.30
2019-03-24T06:25:39.609Z,11.30
2019-03-24T06:28:07.368Z,11.30
2019-03-24T06:30:35.030Z,11.30
2019-03-24T06:33:02.967Z,11.40
2019-03-24T06:35:30.791Z,11.40
2019-03-24T06:37:58.640Z,11.40
2019-03-24T06:40:27.208Z,11.40
2019-03-24T06:42:55.087Z,11.40
2019-03-24T06:45:28.514Z,11.50
2019-03-24T06:47:58.009Z,11.50
2019-03-24T06:50:23.810Z,11.50
2019-03-24T06:52:52.035Z,11.50
2019-03-24T06:55:21.179Z,11.60
2019-03-24T06:57:49.095Z,11.60
2019-03-24T07:00:17.276Z,11.60
2019-03-24T07:02:47.128Z,11.70
2019-03-24T07:05:15.219Z,11.70
2019-03-24T07:07:43.479Z,11.70
2019-03-24T07:10:13.166Z,11.70
2019-03-24T07:12:42.079Z,11.70
2019-03-24T07:15:10.266Z,11.70
2019-03-24T07:17:39.371Z,11.70
2019-03-24T07:20:07.759Z,11.80
2019-03-24T07:22:35.415Z,11.80
2019-03-24T07:25:04.435Z,11.80
2019-03-24T07:27:33.437Z,11.80
2019-03-24T07:30:00.975Z,11.80
2019-03-24T07:32:28.961Z,11.90
2019-03-24T07:34:56.470Z,11.90
2019-03-24T07:37:24.902Z,11.90
2019-03-24T07:39:52.584Z,11.90
2019-03-24T07:42:20.991Z,11.90
2019-03-24T07:44:50.595Z,11.90
2019-03-24T07:47:18.132Z,11.90
2019-03-24T07:49:45.889Z,11.90
2019-03-24T07:52:14.416Z,11.90
2019-03-24T07:54:41.964Z,12.00
2019-03-24T07:57:09.510Z,11.90
2019-03-24T07:59:38.205Z,12.00
2019-03-24T08:02:06.801Z,12.00
2019-03-24T08:04:34.571Z,12.00
2019-03-24T08:07:03.134Z,12.00
2019-03-24T08:09:32.536Z,12.00
2019-03-24T08:12:01.144Z,12.00
2019-03-24T08:14:28.815Z,12.00
2019-03-24T08:16:57.135Z,12.00
2019-03-24T08:19:25.039Z,12.00
2019-03-24T08:21:52.948Z,12.10
2019-03-24T08:24:20.677Z,12.10
2019-03-24T08:26:48.223Z,12.10
2019-03-24T08:29:15.908Z,12.10
2019-03-24T08:31:43.751Z,12.10
2019-03-24T08:34:12.027Z,12.20
2019-03-24T08:36:40.892Z,12.20
2019-03-24T08:39:08.959Z,12.20
2019-03-24T08:41:38.732Z,12.20
2019-03-24T08:44:06.395Z,12.20
2019-03-24T08:46:34.181Z,12.30
2019-03-24T08:49:01.658Z,12.30
2019-03-24T08:51:30.563Z,12.40
2019-03-24T08:53:59.493Z,12.40
2019-03-24T08:56:28.220Z,12.40
2019-03-24T08:58:56.317Z,12.50
2019-03-24T09:01:23.825Z,12.60
2019-03-24T09:03:51.254Z,12.70
2019-03-24T09:06:19.143Z,12.60
2019-03-24T09:08:49.063Z,12.70
2019-03-24T09:11:17.091Z,12.80
2019-03-24T09:13:46.055Z,12.80
2019-03-24T09:16:13.467Z,12.90
2019-03-24T09:18:51.704Z,12.90
2019-03-24T09:21:11.627Z,13.00
2019-03-24T09:23:39.055Z,13.00
2019-03-24T09:26:06.567Z,13.00
2019-03-24T09:28:34.316Z,13.00
2019-03-24T09:31:02.815Z,13.00
2019-03-24T09:33:32.135Z,13.00
2019-03-24T09:35:59.819Z,13.00
2019-03-24T09:38:27.343Z,13.00
2019-03-24T09:40:56.632Z,13.00
2019-03-24T09:43:24.164Z,13.00
2019-03-24T09:45:52.360Z,13.00
2019-03-24T09:48:20.190Z,13.00
2019-03-24T09:50:48.008Z,13.00
2019-03-24T09:53:15.475Z,13.00
2019-03-24T09:55:44.893Z,13.10
2019-03-24T09:58:12.554Z,13.10
2019-03-24T10:00:39.989Z,13.20
2019-03-24T10:03:08.112Z,13.20
2019-03-24T10:05:36.360Z,13.20
2019-03-24T10:08:04.645Z,13.20
2019-03-24T10:10:34.215Z,13.20
2019-03-24T10:13:01.881Z,13.20
2019-03-24T10:15:29.496Z,13.30
2019-03-24T10:17:59.447Z,13.30
2019-03-24T10:20:29.061Z,13.40
2019-03-24T10:22:56.895Z,13.40
2019-03-24T10:25:25.411Z,13.40
2019-03-24T10:27:53.602Z,13.50
2019-03-24T10:30:21.531Z,13.50
2019-03-24T10:32:50.610Z,13.50
2019-03-24T10:35:18.623Z,13.50
2019-03-24T10:37:46.310Z,13.50
2019-03-24T10:40:14.251Z,13.60
2019-03-24T10:42:42.387Z,13.60
2019-03-24T10:45:12.037Z,13.60
2019-03-24T10:47:40.783Z,13.60
2019-03-24T10:50:08.827Z,13.60
2019-03-24T10:52:36.740Z,13.60
2019-03-24T10:55:05.564Z,13.70
2019-03-24T10:57:33.171Z,13.80
2019-03-24T11:00:01.549Z,13.80
2019-03-24T11:02:30.235Z,13.80
2019-03-24T11:04:57.831Z,13.70
2019-03-24T11:07:26.531Z,13.80
2019-03-24T11:09:54.412Z,13.80
2019-03-24T11:12:22.205Z,13.80
2019-03-24T11:14:50.867Z,13.90
2019-03-24T11:17:18.624Z,13.80
2019-03-24T11:19:46.295Z,13.90
2019-03-24T11:22:14.737Z,13.90
2019-03-24T11:24:42.275Z,14.00
2019-03-24T11:27:10.722Z,14.00
2019-03-24T11:29:38.891Z,14.00
2019-03-24T11:32:06.422Z,14.00
2019-03-24T11:34:34.555Z,14.10
2019-03-24T11:37:02.068Z,14.10
2019-03-24T11:39:29.872Z,14.10
2019-03-24T11:41:59.353Z,14.10
2019-03-24T11:44:26.857Z,14.10
2019-03-24T11:46:54.856Z,14.10
2019-03-24T11:49:22.666Z,14.10
2019-03-24T11:51:51.122Z,14.10
2019-03-24T11:54:19.223Z,14.10
2019-03-24T11:56:46.722Z,14.10
2019-03-24T11:59:14.427Z,14.10
2019-03-24T12:01:43.196Z,14.10
2019-03-24T12:04:12.047Z,14.10
2019-03-24T12:06:39.747Z,14.20
2019-03-24T12:09:08.132Z,14.10
2019-03-24T12:11:36.247Z,14.20
2019-03-24T12:14:04.916Z,14.20
2019-03-24T12:16:32.571Z,14.20
2019-03-24T12:19:00.031Z,14.30
2019-03-24T12:21:28.199Z,14.30
2019-03-24T12:23:55.851Z,14.30
2019-03-24T12:26:24.997Z,14.30
2019-03-24T12:28:52.763Z,14.30
2019-03-24T12:31:20.431Z,14.20
2019-03-24T12:33:47.819Z,14.20
2019-03-24T12:36:17.420Z,14.20
2019-03-24T12:38:46.755Z,14.20
2019-03-24T12:41:14.283Z,14.20
2019-03-24T12:43:42.403Z,14.20
2019-03-24T12:46:12.548Z,14.20
2019-03-24T12:48:40.635Z,14.20
2019-03-24T12:51:09.883Z,14.20
2019-03-24T12:53:37.644Z,14.20
2019-03-24T12:56:06.445Z,14.20
2019-03-24T12:58:34.227Z,14.20
2019-03-24T13:01:02.137Z,14.20
2019-03-24T13:03:30.212Z,14.20
2019-03-24T13:05:58.228Z,14.20
2019-03-24T13:08:26.492Z,14.20
2019-03-24T13:10:54.256Z,14.30
2019-03-24T13:13:21.771Z,14.30
2019-03-24T13:15:49.212Z,14.30
2019-03-24T13:18:17.007Z,14.30
2019-03-24T13:20:44.670Z,14.40
2019-03-24T13:23:12.777Z,14.40
2019-03-24T13:25:42.180Z,14.50
2019-03-24T13:28:10.416Z,14.50
2019-03-24T13:30:38.096Z,14.50
2019-03-24T13:33:05.712Z,14.60
2019-03-24T13:35:33.383Z,14.60
2019-03-24T13:38:01.668Z,14.60
2019-03-24T13:40:30.415Z,14.70
2019-03-24T13:42:58.004Z,14.70
2019-03-24T13:45:27.160Z,14.70
2019-03-24T13:47:55.663Z,14.70
2019-03-24T13:50:31.434Z,14.70
2019-03-24T13:52:53.580Z,14.70
2019-03-24T13:55:22.659Z,14.60
2019-03-24T13:57:50.519Z,14.60
2019-03-24T14:00:20.552Z,14.50
2019-03-24T14:02:48.503Z,14.50
2019-03-24T14:05:16.045Z,14.40
2019-03-24T14:07:44.131Z,14.50
2019-03-24T14:10:11.527Z,14.50
2019-03-24T14:12:39.850Z,14.50
2019-03-24T14:15:08.203Z,14.50
2019-03-24T14:17:37.176Z,14.60
2019-03-24T14:20:06.666Z,14.60
2019-03-24T14:22:34.347Z,14.50
2019-03-24T14:25:04.075Z,14.60
2019-03-24T14:27:32.197Z,14.60
2019-03-24T14:30:01.783Z,14.50
2019-03-24T14:32:29.291Z,14.50
2019-03-24T14:34:57.411Z,14.50
2019-03-24T14:37:26.152Z,14.40
2019-03-24T14:39:54.648Z,14.40
2019-03-24T14:42:22.159Z,14.40
2019-03-24T14:44:50.527Z,14.40
2019-03-24T14:47:18.215Z,14.50
2019-03-24T14:49:47.208Z,14.40
2019-03-24T14:52:16.959Z,14.50
2019-03-24T14:54:47.492Z,14.50
2019-03-24T14:57:16.355Z,14.40
2019-03-24T14:59:44.035Z,14.40
2019-03-24T15:02:11.795Z,14.40
2019-03-24T15:04:40.627Z,14.40
2019-03-24T15:07:08.456Z,14.50
2019-03-24T15:09:36.907Z,14.50
2019-03-24T15:12:06.036Z,14.50
2019-03-24T15:14:34.370Z,14.50
2019-03-24T15:17:04.702Z,14.60
2019-03-24T15:19:32.387Z,14.50
2019-03-24T15:22:02.326Z,14.60
2019-03-24T15:24:30.675Z,14.50
2019-03-24T15:26:59.371Z,14.50
2019-03-24T15:29:27.955Z,14.50
2019-03-24T15:31:56.236Z,14.50
2019-03-24T15:34:25.271Z,14.50
2019-03-24T15:36:54.160Z,14.40
2019-03-24T15:39:22.505Z,14.40
2019-03-24T15:41:51.396Z,14.40
2019-03-24T15:44:20.183Z,14.30
2019-03-24T15:46:48.963Z,14.30
2019-03-24T15:49:16.719Z,14.30
2019-03-24T15:51:44.437Z,14.30
2019-03-24T15:54:13.437Z,14.30
2019-03-24T15:56:41.872Z,14.30
2019-03-24T15:59:09.840Z,14.20
2019-03-24T16:01:37.644Z,14.20
2019-03-24T16:04:05.363Z,14.20
2019-03-24T16:06:32.927Z,14.20
2019-03-24T16:09:01.155Z,14.20
2019-03-24T16:11:29.887Z,14.10
2019-03-24T16:13:58.907Z,14.10
2019-03-24T16:16:29.005Z,14.20
2019-03-24T16:18:56.903Z,14.20
2019-03-24T16:21:28.027Z,14.10
2019-03-24T16:23:54.435Z,14.10
2019-03-24T16:26:23.452Z,14.10
2019-03-24T16:28:51.801Z,14.10
2019-03-24T16:31:20.134Z,14.10
2019-03-24T16:33:48.265Z,14.00
2019-03-24T16:36:15.795Z,14.10
2019-03-24T16:38:48.977Z,14.10
2019-03-24T16:41:13.791Z,14.00
2019-03-24T16:43:42.316Z,13.90
2019-03-24T16:46:11.188Z,13.90
2019-03-24T16:48:40.507Z,13.90
2019-03-24T16:51:09.375Z,13.90
2019-03-24T16:53:37.520Z,13.90
2019-03-24T16:56:06.761Z,13.90
2019-03-24T16:58:34.519Z,14.00
2019-03-24T17:01:02.388Z,13.90
2019-03-24T17:03:30.079Z,13.90
2019-03-24T17:05:59.235Z,13.80
2019-03-24T17:08:28.795Z,13.90
2019-03-24T17:10:57.226Z,13.80
2019-03-24T17:13:25.123Z,13.80
2019-03-24T17:15:53.635Z,13.70
2019-03-24T17:18:21.182Z,13.70
2019-03-24T17:20:49.815Z,13.70
2019-03-24T17:23:18.803Z,13.60
2019-03-24T17:25:47.578Z,13.60
2019-03-24T17:28:16.363Z,13.60
2019-03-24T17:30:44.032Z,13.50
2019-03-24T17:33:12.087Z,13.50
2019-03-24T17:35:40.493Z,13.50
2019-03-24T17:38:08.615Z,13.40
2019-03-24T17:40:38.970Z,13.40
2019-03-24T17:43:07.418Z,13.40
2019-03-24T17:45:35.089Z,13.40
2019-03-24T17:48:04.784Z,13.40
2019-03-24T17:50:33.551Z,13.30
2019-03-24T17:53:02.331Z,13.30
2019-03-24T17:55:31.178Z,13.30
2019-03-24T17:58:00.719Z,13.30
2019-03-24T18:00:39.847Z,13.30
2019-03-24T18:03:08.088Z,13.30
2019-03-24T18:05:36.043Z,13.20
2019-03-24T18:08:04.076Z,13.20
2019-03-24T18:10:32.380Z,13.10
2019-03-24T18:13:00.376Z,13.20
2019-03-24T18:15:28.680Z,13.20
2019-03-24T18:17:57.608Z,13.10
2019-03-24T18:20:30.447Z,13.10
2019-03-24T18:22:58.551Z,13.00
2019-03-24T18:25:26.674Z,13.00
2019-03-24T18:27:54.851Z,13.00
2019-03-24T18:30:24.192Z,13.00
2019-03-24T18:32:51.795Z,13.00
2019-03-24T18:35:19.435Z,13.00
2019-03-24T18:37:46.985Z,12.90
2019-03-24T18:40:15.525Z,12.90
2019-03-24T18:42:43.595Z,12.80
2019-03-24T18:45:13.341Z,12.70
2019-03-24T18:47:41.243Z,12.70
2019-03-24T18:50:09.750Z,12.70
2019-03-24T18:52:37.519Z,12.80
2019-03-24T18:55:07.051Z,12.80
2019-03-24T18:57:35.768Z,12.80
2019-03-24T19:00:04.444Z,12.80
2019-03-24T19:02:32.383Z,12.80
2019-03-24T19:05:00.352Z,12.80
2019-03-24T19:07:28.739Z,12.80
2019-03-24T19:09:56.667Z,12.80
2019-03-24T19:12:24.459Z,12.80
2019-03-24T19:14:54.238Z,12.80
2019-03-24T19:17:22.091Z,12.60
2019-03-24T19:19:49.628Z,12.70
2019-03-24T19:22:18.587Z,12.70
2019-03-24T19:24:47.384Z,12.70
2019-03-24T19:27:16.191Z,12.70
2019-03-24T19:29:43.841Z,12.60
2019-03-24T19:32:13.040Z,12.60
2019-03-24T19:34:41.859Z,12.70
2019-03-24T19:37:09.767Z,12.60
2019-03-24T19:39:37.331Z,12.60
2019-03-24T19:42:05.887Z,12.60
2019-03-24T19:44:33.407Z,12.60
2019-03-24T19:47:01.075Z,12.60
2019-03-24T19:49:28.715Z,12.50
2019-03-24T19:51:56.223Z,12.50
2019-03-24T19:54:23.929Z,12.50
2019-03-24T19:56:52.427Z,12.50
2019-03-24T19:59:20.288Z,12.50
2019-03-24T20:01:48.340Z,12.50
2019-03-24T20:04:15.871Z,12.50
2019-03-24T20:06:43.807Z,12.40
2019-03-24T20:09:11.300Z,12.40
2019-03-24T20:11:39.964Z,12.50
2019-03-24T20:14:07.838Z,12.50
2019-03-24T20:16:35.271Z,12.40
2019-03-24T20:19:02.987Z,12.40
2019-03-24T20:21:30.655Z,12.40
2019-03-24T20:23:58.509Z,12.30
2019-03-24T20:26:27.394Z,12.30
2019-03-24T20:28:56.318Z,12.30
2019-03-24T20:31:24.335Z,12.30
2019-03-24T20:33:53.800Z,12.30
2019-03-24T20:36:22.174Z,12.30
2019-03-24T20:38:49.699Z,12.30
2019-03-24T20:41:17.803Z,12.40
2019-03-24T20:43:46.700Z,12.30
2019-03-24T20:46:14.647Z,12.20
2019-03-24T20:48:43.020Z,12.20
2019-03-24T20:51:10.677Z,12.10
2019-03-24T20:53:40.235Z,12.10
2019-03-24T20:56:08.355Z,12.00
2019-03-24T20:58:36.251Z,11.90
2019-03-24T21:01:05.503Z,11.90
2019-03-24T21:03:35.264Z,12.00
2019-03-24T21:06:03.999Z,12.00
2019-03-24T21:08:32.327Z,12.00
2019-03-24T21:11:00.848Z,12.00
2019-03-24T21:13:28.368Z,11.90
2019-03-24T21:15:55.887Z,11.80
2019-03-24T21:18:24.720Z,11.80
2019-03-24T21:20:52.553Z,11.80
2019-03-24T21:23:29.408Z,11.70
2019-03-24T21:25:50.711Z,11.70
2019-03-24T21:28:19.069Z,11.80
2019-03-24T21:30:47.403Z,11.80
2019-03-24T21:33:15.551Z,11.70
2019-03-24T21:35:44.244Z,11.70
2019-03-24T21:38:12.107Z,11.70
2019-03-24T21:40:40.947Z,11.70
2019-03-24T21:43:09.191Z,11.60
2019-03-24T21:45:36.872Z,11.60
2019-03-24T21:48:04.875Z,11.60
2019-03-24T21:50:32.770Z,11.70
2019-03-24T21:53:00.460Z,11.60
2019-03-24T21:55:28.471Z,11.60
2019-03-24T21:57:57.798Z,11.60
2019-03-24T22:00:31.933Z,11.50
2019-03-24T22:03:00.695Z,11.40
2019-03-24T22:05:29.035Z,11.40
2019-03-24T22:07:58.376Z,11.40
2019-03-24T22:10:26.272Z,11.50
2019-03-24T22:12:55.395Z,11.40
2019-03-24T22:15:24.115Z,11.50
2019-03-24T22:17:52.124Z,11.50
2019-03-24T22:20:21.148Z,11.50
2019-03-24T22:22:49.063Z,11.50
2019-03-24T22:25:17.091Z,11.50
2019-03-24T22:27:44.904Z,11.60
2019-03-24T22:30:13.195Z,11.40
2019-03-24T22:32:40.862Z,11.40
2019-03-24T22:35:08.609Z,11.40
2019-03-24T22:37:38.139Z,11.30
2019-03-24T22:40:06.017Z,11.40
2019-03-24T22:42:33.623Z,11.40
2019-03-24T22:45:02.893Z,11.30
2019-03-24T22:47:30.381Z,11.30
2019-03-24T22:49:57.959Z,11.20
2019-03-24T22:52:25.548Z,11.10
2019-03-24T22:54:54.451Z,11.10
2019-03-24T22:57:23.745Z,11.10
2019-03-24T22:59:53.006Z,11.10
2019-03-24T23:02:21.545Z,11.20
2019-03-24T23:04:49.167Z,11.10
2019-03-24T23:07:17.528Z,11.20
2019-03-24T23:09:45.181Z,11.30
2019-03-24T23:12:14.439Z,11.30
2019-03-24T23:14:42.324Z,11.30
2019-03-24T23:17:10.363Z,11.30
2019-03-24T23:19:39.172Z,11.30
2019-03-24T23:22:06.840Z,11.20
2019-03-24T23:24:34.231Z,11.20
2019-03-24T23:27:03.183Z,11.20
2019-03-24T23:29:32.240Z,11.20
2019-03-24T23:31:59.896Z,11.20
2019-03-24T23:34:28.672Z,11.30
2019-03-24T23:36:57.407Z,11.20
2019-03-24T23:39:25.230Z,11.20
2019-03-24T23:41:54.671Z,11.20
2019-03-24T23:44:22.563Z,11.20
2019-03-24T23:46:50.455Z,11.20
2019-03-24T23:49:18.455Z,11.20
2019-03-24T23:51:46.455Z,11.10
2019-03-24T23:54:26.201Z,11.20
2019-03-24T23:56:44.948Z,11.20
2019-03-24T23:59:13.008Z,11.20
